createdAt,value
2023-05-08T05:00:35.230Z,114.78
2023-05-08T05:03:22.075Z,86.93
2023-05-08T05:06:08.763Z,70.95
2023-05-08T05:08:55.264Z,82.68
2023-05-08T05:11:41.530Z,79.72
2023-05-08T05:14:28.354Z,76.78
2023-05-08T07:13:48.922Z,34.17
2023-05-08T07:16:37.590Z,37.78
2023-05-08T07:19:24.924Z,39.70
2023-05-08T07:22:11.122Z,37.03
2023-05-08T07:24:57.805Z,39.95
2023-05-08T07:27:44.155Z,40.10
2023-05-08T07:30:32.045Z,40.35
2023-05-08T07:33:18.647Z,40.42
2023-05-08T07:36:05.495Z,42.38
2023-05-08T07:38:52.432Z,45.08
2023-05-08T07:41:40.940Z,43.78
2023-05-08T07:44:27.377Z,49.65
2023-05-08T07:47:14.852Z,49.45
2023-05-08T07:50:01.848Z,50.53
2023-05-08T07:52:50.369Z,52.55
2023-05-08T07:55:37.417Z,53.33
2023-05-08T07:58:24.019Z,55.50
2023-05-08T08:01:10.470Z,57.50
2023-05-08T08:03:58.100Z,59.90
2023-05-08T08:06:44.531Z,67.93
2023-05-08T08:09:31.191Z,73.47
2023-05-08T08:12:17.409Z,76.03
2023-05-08T08:15:05.216Z,76.30
2023-05-08T08:17:52.386Z,77.53
2023-05-08T08:20:40.103Z,81.63
2023-05-08T08:23:26.618Z,80.60
2023-05-08T08:26:13.132Z,84.70
2023-05-08T08:28:59.311Z,75.10
2023-05-08T08:31:45.707Z,77.43
2023-05-08T08:34:34.811Z,80.00
2023-05-08T08:37:22.394Z,75.18
2023-05-08T08:40:09.986Z,77.35
2023-05-08T08:42:56.568Z,76.93
2023-05-08T08:46:00.981Z,78.28
2023-05-08T08:53:41.136Z,74.10
2023-05-08T08:56:28.857Z,80.38
2023-05-08T08:59:18.208Z,85.07
2023-05-08T09:02:19.934Z,86.25
2023-05-08T09:05:11.960Z,91.40
2023-05-08T09:08:00.330Z,81.63
2023-05-08T09:10:48.389Z,85.50
2023-05-08T09:14:26.573Z,82.13
2023-05-08T09:17:12.712Z,84.63
2023-05-08T09:19:59.684Z,91.70
2023-05-08T09:22:47.381Z,82.47
2023-05-08T09:25:42.856Z,86.38
2023-05-08T09:28:31.015Z,89.10
2023-05-08T09:31:17.305Z,85.65
2023-05-08T09:34:23.449Z,79.03
2023-05-08T09:37:13.864Z,76.30
2023-05-08T09:40:18.600Z,73.80
2023-05-08T09:43:13.920Z,74.85
2023-05-08T09:46:21.109Z,76.38
2023-05-08T09:49:07.628Z,76.18
2023-05-08T09:51:55.364Z,71.70
2023-05-08T09:54:42.240Z,77.95
2023-05-08T09:57:29.886Z,79.45
2023-05-08T10:00:16.681Z,75.85
2023-05-08T10:03:04.930Z,78.35
2023-05-08T10:05:52.301Z,78.03
2023-05-08T10:08:38.495Z,77.50
2023-05-08T10:11:24.804Z,73.57
2023-05-08T10:14:11.184Z,74.22
2023-05-08T12:02:07.607Z,47.53
2023-05-08T12:04:55.518Z,51.30
2023-05-08T12:07:52.778Z,47.00
2023-05-08T12:10:51.429Z,51.55
2023-05-08T12:13:37.811Z,48.40
2023-05-08T12:16:28.445Z,46.53
2023-05-08T12:19:16.807Z,46.30
2023-05-08T12:25:45.580Z,54.65
2023-05-08T13:00:24.154Z,41.60
2023-05-08T13:03:36.487Z,39.80
2023-05-08T13:06:23.444Z,38.60
2023-05-08T13:09:09.905Z,35.63
2023-05-08T13:33:49.273Z,34.88
2023-05-08T13:36:40.274Z,39.60
2023-05-08T13:39:26.618Z,36.42
2023-05-08T13:42:13.087Z,39.53
2023-05-08T13:44:59.360Z,36.75
2023-05-08T13:47:46.504Z,39.22
2023-05-08T13:50:33.941Z,36.92
2023-05-08T14:42:52.444Z,40.50
2023-05-08T14:45:38.811Z,45.83
2023-05-08T14:48:25.076Z,39.83
2023-05-08T14:51:12.140Z,40.60
2023-05-08T14:54:17.416Z,40.95
2023-05-08T14:57:06.709Z,42.88
2023-05-08T14:59:56.120Z,39.05
2023-05-08T15:02:55.656Z,43.78
2023-05-08T15:05:41.805Z,39.90
2023-05-08T15:08:36.823Z,42.63
2023-05-08T15:11:24.460Z,39.47
2023-05-08T15:14:10.978Z,43.47
2023-05-08T15:16:57.186Z,42.38
2023-05-08T15:19:43.702Z,48.53
2023-05-08T15:33:57.869Z,59.83
2023-05-08T15:36:44.200Z,77.30
2023-05-08T15:39:30.278Z,82.38
2023-05-08T17:32:33.959Z,36.70
2023-05-08T17:35:39.087Z,38.00
2023-05-08T17:38:57.017Z,31.42
2023-05-08T17:51:36.997Z,34.47
2023-05-08T17:58:57.879Z,36.75
2023-05-08T18:02:05.874Z,39.72
2023-05-08T18:04:53.226Z,34.33
2023-05-08T18:08:40.042Z,38.85
2023-05-08T18:11:31.486Z,38.25
2023-05-08T18:14:21.591Z,35.85
2023-05-08T18:17:08.317Z,39.42
2023-05-08T18:20:56.770Z,39.78
2023-05-08T18:23:42.946Z,38.60
2023-05-08T18:26:52.744Z,42.38
2023-05-08T18:29:39.269Z,39.40
2023-05-08T18:32:27.516Z,40.08
2023-05-08T18:35:14.022Z,39.15
2023-05-08T18:38:00.399Z,46.95
2023-05-08T18:40:47.815Z,44.33
2023-05-08T18:43:41.359Z,45.33
2023-05-08T18:46:30.873Z,47.00
2023-05-08T18:49:17.367Z,48.55
2023-05-08T18:52:03.537Z,46.05
2023-05-08T18:54:49.910Z,42.20
2023-05-08T18:57:36.593Z,47.78
2023-05-08T19:04:23.447Z,51.00
2023-05-08T19:07:58.220Z,44.70
2023-05-08T19:10:45.377Z,44.85
2023-05-08T19:13:31.712Z,52.08
2023-05-08T19:16:18.416Z,49.85
2023-05-08T19:19:04.492Z,43.92
2023-05-08T19:21:51.830Z,47.20
2023-05-08T19:24:40.174Z,46.13
2023-05-08T19:27:28.897Z,52.40
2023-05-08T19:30:15.534Z,50.25
2023-05-08T19:33:13.718Z,52.08
2023-05-08T19:36:02.753Z,56.45
2023-05-08T19:38:48.890Z,56.38
2023-05-08T19:41:36.730Z,60.78
2023-05-08T19:44:23.352Z,56.53
2023-05-08T19:47:09.483Z,56.78
2023-05-08T19:49:56.033Z,57.78
2023-05-08T19:52:42.443Z,59.53
2023-05-08T19:55:28.994Z,61.33
2023-05-08T19:58:17.460Z,60.53
2023-05-08T22:02:27.310Z,52.67
2023-05-08T22:05:14.481Z,55.25
2023-05-08T22:08:01.323Z,55.90
2023-05-08T22:10:47.884Z,55.83
2023-05-08T22:13:34.079Z,59.10
